Time;durP1;ratioP1;P1;durP2;ratioP2;P2;SDS_P1;SDS_P2;PMS_P1;PMS_P2;Temp;Humidity;BMP_temperature;BMP_pressure;BME280_temperature;BME280_humidity;BME280_pressure;Samples;Min_cycle;Max_cycle;Signal;HPM_P1;HPM_P2
2022/06/08 00:02:15;;;;;;;4.65;1.52;;;;;;;;;;4998588;28;20034;-64
2022/06/08 00:04:42;;;;;;;3.70;1.45;;;;;;;;;;4998065;28;20096;-64
2022/06/08 00:07:08;;;;;;;5.80;1.77;;;;;;;;;;4998297;28;20042;-64
2022/06/08 00:09:35;;;;;;;6.75;1.70;;;;;;;;;;4996835;28;20048;-63
2022/06/08 00:12:03;;;;;;;5.00;2.00;;;;;;;;;;4997863;28;20186;-63
2022/06/08 00:14:30;;;;;;;3.30;1.50;;;;;;;;;;5029430;28;20068;-63
2022/06/08 00:16:57;;;;;;;4.38;1.73;;;;;;;;;;5030359;28;20061;-62
2022/06/08 00:19:24;;;;;;;3.10;1.42;;;;;;;;;;4997703;28;20045;-63
2022/06/08 00:21:51;;;;;;;5.90;1.55;;;;;;;;;;4996645;28;20088;-63
2022/06/08 00:24:19;;;;;;;3.45;1.42;;;;;;;;;;4997789;28;20037;-63
2022/06/08 00:26:45;;;;;;;3.28;1.50;;;;;;;;;;4993208;28;20061;-63
2022/06/08 00:29:12;;;;;;;3.75;1.50;;;;;;;;;;5013727;28;20033;-58
2022/06/08 00:31:39;;;;;;;5.10;1.40;;;;;;;;;;4997703;28;20053;-62
2022/06/08 00:34:06;;;;;;;3.20;1.40;;;;;;;;;;4997518;28;20052;-63
2022/06/08 00:36:32;;;;;;;5.22;1.75;;;;;;;;;;4998542;28;20030;-62
2022/06/08 00:39:01;;;;;;;3.38;1.20;;;;;;;;;;4998286;28;20057;-63
2022/06/08 00:41:28;;;;;;;3.45;1.50;;;;;;;;;;4996086;28;20065;-59
2022/06/08 00:43:55;;;;;;;3.28;1.25;;;;;;;;;;4999053;28;20042;-59
2022/06/08 00:46:22;;;;;;;3.95;1.40;;;;;;;;;;4995175;28;20152;-59
2022/06/08 00:48:50;;;;;;;6.13;1.70;;;;;;;;;;4998456;28;20044;-59
2022/06/08 00:51:17;;;;;;;3.33;1.40;;;;;;;;;;4996747;28;20050;-59
2022/06/08 00:53:47;;;;;;;5.78;2.17;;;;;;;;;;4997775;28;20046;-64
2022/06/08 00:56:16;;;;;;;3.47;1.42;;;;;;;;;;4998441;28;20042;-60
2022/06/08 00:58:43;;;;;;;3.70;1.70;;;;;;;;;;4996398;28;20133;-64
2022/06/08 01:01:11;;;;;;;4.10;1.42;;;;;;;;;;4996608;28;20069;-63
2022/06/08 01:03:38;;;;;;;5.10;1.60;;;;;;;;;;4996862;28;20046;-63
2022/06/08 01:06:06;;;;;;;4.82;1.45;;;;;;;;;;4995456;28;20038;-66
2022/06/08 01:08:36;;;;;;;3.15;1.40;;;;;;;;;;4996268;28;20054;-64
2022/06/08 01:11:06;;;;;;;3.70;1.80;;;;;;;;;;4998562;28;20504;-65
2022/06/08 01:13:34;;;;;;;4.68;1.58;;;;;;;;;;4996405;28;20096;-65
2022/06/08 01:16:05;;;;;;;3.70;1.60;;;;;;;;;;4998906;28;20371;-64
2022/06/08 01:18:32;;;;;;;3.47;1.33;;;;;;;;;;4997690;28;20117;-61
2022/06/08 01:21:17;;;;;;;4.38;1.80;;;;;;;;;;4997764;28;20127;-66
2022/06/08 01:23:44;;;;;;;3.90;1.70;;;;;;;;;;4997580;28;20561;-65
2022/06/08 01:26:21;;;;;;;5.50;1.35;;;;;;;;;;4996083;28;20065;-65
2022/06/08 01:28:48;;;;;;;4.47;1.60;;;;;;;;;;4997567;28;20053;-66
2022/06/08 01:31:21;;;;;;;3.00;1.30;;;;;;;;;;4997701;28;20081;-64
2022/06/08 01:33:47;;;;;;;6.47;1.90;;;;;;;;;;4996664;28;20117;-66
2022/06/08 01:36:27;;;;;;;4.88;1.52;;;;;;;;;;4996744;28;20041;-65
2022/06/08 01:38:57;;;;;;;4.18;1.75;;;;;;;;;;4996906;28;20042;-66
2022/06/08 01:41:23;;;;;;;5.20;1.60;;;;;;;;;;4997319;28;20514;-65
2022/06/08 01:44:10;;;;;;;3.63;1.60;;;;;;;;;;4998049;28;20034;-65
2022/06/08 01:46:57;;;;;;;4.05;1.80;;;;;;;;;;4995930;28;20076;-64
2022/06/08 01:49:28;;;;;;;4.25;1.70;;;;;;;;;;4995890;28;20034;-66
2022/06/08 01:51:58;;;;;;;3.92;1.77;;;;;;;;;;4998449;28;20065;-65
2022/06/08 01:54:31;;;;;;;3.45;1.40;;;;;;;;;;4996297;28;20041;-65
2022/06/08 01:57:03;;;;;;;3.20;1.60;;;;;;;;;;4996612;28;20044;-66
2022/06/08 01:59:39;;;;;;;4.90;1.60;;;;;;;;;;4996176;28;20171;-65
2022/06/08 02:02:24;;;;;;;5.05;1.70;;;;;;;;;;4998004;28;20073;-65
2022/06/08 02:05:10;;;;;;;3.53;1.38;;;;;;;;;;4998531;28;20062;-60
2022/06/08 02:07:48;;;;;;;3.20;1.60;;;;;;;;;;4996203;28;20054;-60
2022/06/08 02:10:23;;;;;;;5.70;1.73;;;;;;;;;;4998525;28;20081;-65
2022/06/08 02:12:56;;;;;;;3.30;1.50;;;;;;;;;;4996318;28;20038;-65
2022/06/08 02:15:22;;;;;;;3.00;1.33;;;;;;;;;;4999992;28;20068;-65
2022/06/08 02:17:53;;;;;;;4.50;1.42;;;;;;;;;;5000404;28;20057;-66
2022/06/08 02:20:38;;;;;;;3.55;1.58;;;;;;;;;;5000184;28;20046;-64
2022/06/08 02:23:16;;;;;;;5.40;1.30;;;;;;;;;;4999000;28;20080;-65
2022/06/08 02:25:45;;;;;;;3.13;1.45;;;;;;;;;;4998530;28;20815;-64
2022/06/08 02:28:16;;;;;;;4.03;1.77;;;;;;;;;;5001546;28;20057;-64
2022/06/08 02:30:44;;;;;;;5.65;1.40;;;;;;;;;;5000702;28;20037;-66
2022/06/08 02:36:04;;;;;;;3.83;1.30;;;;;;;;;;5000114;28;20050;-65
2022/06/08 02:38:36;;;;;;;3.63;1.30;;;;;;;;;;5002166;28;20526;-65
2022/06/08 02:41:04;;;;;;;4.15;1.60;;;;;;;;;;5002742;28;20042;-65
2022/06/08 02:43:38;;;;;;;4.90;1.38;;;;;;;;;;5003455;28;20060;-66
2022/06/08 02:46:15;;;;;;;5.80;1.60;;;;;;;;;;5003953;28;20084;-63
2022/06/08 02:48:42;;;;;;;3.75;1.60;;;;;;;;;;5002571;28;20142;-64
2022/06/08 02:51:09;;;;;;;3.50;1.35;;;;;;;;;;5001582;28;20035;-63
2022/06/08 02:53:47;;;;;;;4.65;1.55;;;;;;;;;;5001320;28;20080;-65
2022/06/08 02:56:33;;;;;;;4.70;1.70;;;;;;;;;;5003633;28;20061;-66
2022/06/08 02:59:07;;;;;;;4.55;1.73;;;;;;;;;;5000116;28;20046;-62
2022/06/08 03:01:39;;;;;;;6.28;1.48;;;;;;;;;;4999339;28;20099;-60
2022/06/08 03:04:09;;;;;;;3.95;1.67;;;;;;;;;;4998047;28;20124;-64
2022/06/08 03:06:42;;;;;;;3.65;1.75;;;;;;;;;;4999750;28;20049;-63
2022/06/08 03:09:11;;;;;;;7.18;1.85;;;;;;;;;;5001553;28;20447;-64
2022/06/08 03:11:41;;;;;;;4.68;1.83;;;;;;;;;;4999396;28;20046;-64
2022/06/08 03:14:09;;;;;;;5.50;1.55;;;;;;;;;;5000210;28;20129;-64
2022/06/08 03:16:36;;;;;;;5.28;1.65;;;;;;;;;;4999608;28;20577;-66
2022/06/08 03:19:03;;;;;;;3.72;1.85;;;;;;;;;;5000178;28;20069;-65
2022/06/08 03:21:30;;;;;;;5.95;1.77;;;;;;;;;;4998945;28;20053;-65
2022/06/08 03:23:57;;;;;;;5.97;1.55;;;;;;;;;;5013746;28;20077;-64
2022/06/08 03:26:25;;;;;;;3.67;1.40;;;;;;;;;;4998963;28;20057;-62
2022/06/08 03:28:51;;;;;;;5.97;1.90;;;;;;;;;;4999914;28;20383;-63
2022/06/08 03:31:18;;;;;;;5.13;1.60;;;;;;;;;;4999671;28;20062;-58
2022/06/08 03:33:45;;;;;;;4.88;1.58;;;;;;;;;;4999074;28;20629;-63
2022/06/08 03:36:12;;;;;;;4.00;1.52;;;;;;;;;;5000180;28;20046;-59
2022/06/08 03:38:38;;;;;;;5.45;1.40;;;;;;;;;;4996759;28;20046;-59
2022/06/08 03:41:05;;;;;;;3.83;1.35;;;;;;;;;;4998522;28;20038;-57
2022/06/08 03:43:32;;;;;;;7.05;1.80;;;;;;;;;;4998371;28;20073;-59
2022/06/08 03:45:59;;;;;;;5.00;1.77;;;;;;;;;;4998107;28;20628;-58
2022/06/08 03:48:27;;;;;;;3.20;1.38;;;;;;;;;;4997629;28;20135;-59
2022/06/08 03:50:55;;;;;;;6.72;1.65;;;;;;;;;;4997384;28;20532;-58
2022/06/08 03:53:23;;;;;;;4.63;1.50;;;;;;;;;;4997747;28;20553;-65
2022/06/08 03:55:51;;;;;;;4.18;1.92;;;;;;;;;;4997477;28;20056;-59
2022/06/08 03:58:18;;;;;;;6.82;2.17;;;;;;;;;;4998601;28;20046;-57
2022/06/08 04:00:45;;;;;;;8.48;1.88;;;;;;;;;;4998053;28;20841;-59
2022/06/08 04:03:12;;;;;;;5.63;1.63;;;;;;;;;;4998797;28;20410;-58
2022/06/08 04:05:39;;;;;;;4.18;1.60;;;;;;;;;;4997545;28;21783;-59
2022/06/08 04:08:06;;;;;;;3.58;1.48;;;;;;;;;;4997957;28;20157;-58
2022/06/08 04:10:33;;;;;;;6.90;1.80;;;;;;;;;;4997947;28;20869;-60
2022/06/08 04:13:00;;;;;;;3.35;1.40;;;;;;;;;;4997724;28;20429;-56
2022/06/08 04:15:42;;;;;;;4.63;1.70;;;;;;;;;;4996164;28;20160;-60
2022/06/08 04:18:10;;;;;;;4.70;1.75;;;;;;;;;;4998103;28;20045;-57
2022/06/08 04:20:37;;;;;;;5.45;1.83;;;;;;;;;;4996795;28;20038;-57
2022/06/08 04:23:04;;;;;;;4.95;2.22;;;;;;;;;;5013435;28;20079;-58
2022/06/08 04:25:31;;;;;;;6.30;1.77;;;;;;;;;;4995884;28;20042;-58
2022/06/08 04:27:58;;;;;;;4.38;1.70;;;;;;;;;;4997701;28;20142;-57
2022/06/08 04:30:25;;;;;;;4.88;1.60;;;;;;;;;;4998490;28;20036;-59
2022/06/08 04:32:51;;;;;;;5.32;1.83;;;;;;;;;;4996574;28;20049;-58
2022/06/08 04:35:18;;;;;;;4.50;1.80;;;;;;;;;;4996925;28;20034;-57
2022/06/08 04:37:45;;;;;;;3.97;1.52;;;;;;;;;;4997611;28;20069;-58
2022/06/08 04:40:14;;;;;;;5.35;2.25;;;;;;;;;;4999283;28;20053;-58
2022/06/08 04:42:41;;;;;;;3.92;1.60;;;;;;;;;;4998526;28;20415;-59
2022/06/08 04:45:08;;;;;;;4.13;1.90;;;;;;;;;;4997827;28;20506;-58
2022/06/08 04:47:35;;;;;;;3.83;1.90;;;;;;;;;;4997947;28;20041;-58
2022/06/08 04:50:02;;;;;;;5.35;1.88;;;;;;;;;;4998983;28;20528;-59
2022/06/08 04:52:29;;;;;;;5.32;1.65;;;;;;;;;;4999521;28;20038;-59
2022/06/08 04:54:56;;;;;;;3.92;1.70;;;;;;;;;;4999820;28;20050;-62
2022/06/08 04:57:22;;;;;;;4.97;1.80;;;;;;;;;;4998594;28;20049;-58
2022/06/08 04:59:49;;;;;;;8.43;2.00;;;;;;;;;;4999729;28;20490;-60
2022/06/08 05:02:42;;;;;;;4.10;1.77;;;;;;;;;;4999663;28;20073;-58
2022/06/08 05:05:04;;;;;;;4.63;2.10;;;;;;;;;;4998956;28;20414;-58
2022/06/08 05:07:30;;;;;;;5.85;1.65;;;;;;;;;;4997773;28;20147;-59
2022/06/08 05:09:57;;;;;;;6.20;2.33;;;;;;;;;;4998252;28;20143;-57
2022/06/08 05:12:24;;;;;;;5.32;1.80;;;;;;;;;;4997717;28;20180;-59
2022/06/08 05:14:50;;;;;;;7.88;2.05;;;;;;;;;;4998238;28;20052;-59
2022/06/08 05:17:17;;;;;;;5.18;1.90;;;;;;;;;;4997583;28;20061;-59
2022/06/08 05:19:45;;;;;;;5.63;2.15;;;;;;;;;;4997368;28;20192;-56
2022/06/08 05:22:12;;;;;;;3.78;1.85;;;;;;;;;;5029885;28;20392;-59
2022/06/08 05:24:38;;;;;;;4.10;2.00;;;;;;;;;;4996447;28;20046;-58
2022/06/08 05:27:06;;;;;;;3.97;1.88;;;;;;;;;;4997683;28;20053;-59
2022/06/08 05:29:32;;;;;;;5.80;1.88;;;;;;;;;;4997107;28;20117;-59
2022/06/08 05:31:59;;;;;;;4.32;2.05;;;;;;;;;;4998765;28;20395;-57
2022/06/08 05:34:26;;;;;;;6.40;2.50;;;;;;;;;;4996257;28;20505;-59
2022/06/08 05:36:54;;;;;;;5.88;2.17;;;;;;;;;;4998680;28;20038;-59
2022/06/08 05:39:21;;;;;;;6.75;2.10;;;;;;;;;;4997146;28;20048;-59
2022/06/08 05:41:47;;;;;;;5.35;2.17;;;;;;;;;;4998324;28;20137;-59
2022/06/08 05:44:15;;;;;;;9.40;2.55;;;;;;;;;;4997096;28;20056;-59
2022/06/08 05:46:41;;;;;;;7.38;2.20;;;;;;;;;;4996206;28;20409;-58
2022/06/08 05:49:08;;;;;;;8.07;2.15;;;;;;;;;;5000993;28;20165;-59
2022/06/08 05:51:36;;;;;;;5.13;2.67;;;;;;;;;;5000744;28;20144;-59
2022/06/08 05:54:02;;;;;;;6.20;2.63;;;;;;;;;;5001519;28;20034;-59
2022/06/08 05:56:29;;;;;;;5.13;2.22;;;;;;;;;;5000857;28;20057;-59
2022/06/08 05:58:55;;;;;;;5.55;2.15;;;;;;;;;;5002312;28;20212;-59
2022/06/08 06:01:22;;;;;;;5.63;1.85;;;;;;;;;;5000489;28;20038;-59
2022/06/08 06:03:49;;;;;;;7.65;2.50;;;;;;;;;;4999757;28;20052;-58
2022/06/08 06:06:15;;;;;;;4.78;2.13;;;;;;;;;;5001796;28;20486;-60
2022/06/08 06:08:44;;;;;;;4.75;2.25;;;;;;;;;;5000247;28;20096;-59
2022/06/08 06:11:13;;;;;;;4.15;2.03;;;;;;;;;;5000528;28;20057;-59
2022/06/08 06:13:40;;;;;;;5.95;2.15;;;;;;;;;;4998376;28;21033;-59
2022/06/08 06:16:07;;;;;;;4.60;2.40;;;;;;;;;;5000047;28;20054;-58
2022/06/08 06:18:34;;;;;;;5.45;2.30;;;;;;;;;;4999837;28;20034;-58
2022/06/08 06:21:01;;;;;;;5.57;2.25;;;;;;;;;;5000009;28;20047;-59
2022/06/08 06:23:28;;;;;;;8.45;2.70;;;;;;;;;;5000712;28;20072;-60
2022/06/08 06:25:55;;;;;;;5.70;2.70;;;;;;;;;;5000365;28;20208;-59
2022/06/08 06:28:22;;;;;;;5.18;2.40;;;;;;;;;;4998949;28;20058;-60
2022/06/08 06:30:49;;;;;;;8.27;2.50;;;;;;;;;;5000210;28;20042;-59
2022/06/08 06:33:16;;;;;;;6.32;2.50;;;;;;;;;;5001068;28;20452;-57
2022/06/08 06:35:43;;;;;;;4.80;2.75;;;;;;;;;;4999101;28;20050;-59
2022/06/08 06:38:10;;;;;;;4.10;2.28;;;;;;;;;;4999170;28;20116;-59
2022/06/08 06:40:38;;;;;;;6.00;2.75;;;;;;;;;;4999789;28;20502;-58
2022/06/08 06:43:05;;;;;;;5.22;2.42;;;;;;;;;;4998981;28;20044;-58
2022/06/08 06:45:32;;;;;;;7.72;2.90;;;;;;;;;;4998062;28;20049;-59
2022/06/08 06:47:59;;;;;;;8.68;3.28;;;;;;;;;;4999291;28;22316;-59
2022/06/08 06:50:25;;;;;;;6.80;2.70;;;;;;;;;;4998976;28;20494;-60
2022/06/08 06:52:52;;;;;;;10.70;3.00;;;;;;;;;;4999479;28;20099;-60
2022/06/08 06:55:20;;;;;;;5.90;2.88;;;;;;;;;;4998907;28;20528;-60
2022/06/08 06:57:47;;;;;;;5.03;2.65;;;;;;;;;;4998241;28;20093;-59
2022/06/08 07:00:14;;;;;;;6.18;2.67;;;;;;;;;;4998653;28;20065;-60
2022/06/08 07:02:40;;;;;;;4.82;2.80;;;;;;;;;;4998226;28;20034;-59
2022/06/08 07:05:07;;;;;;;7.45;2.65;;;;;;;;;;4998562;28;20036;-59
2022/06/08 07:07:34;;;;;;;5.50;3.22;;;;;;;;;;4998000;28;20458;-57
2022/06/08 07:10:00;;;;;;;6.85;2.58;;;;;;;;;;4997997;28;20061;-58
2022/06/08 07:12:27;;;;;;;6.18;3.17;;;;;;;;;;4998000;28;20049;-58
2022/06/08 07:14:54;;;;;;;6.30;2.38;;;;;;;;;;4998132;28;20858;-59
2022/06/08 07:17:20;;;;;;;5.03;2.90;;;;;;;;;;4999482;28;20042;-59
2022/06/08 07:19:47;;;;;;;6.60;2.97;;;;;;;;;;4998437;28;20041;-59
2022/06/08 07:22:13;;;;;;;5.28;2.67;;;;;;;;;;5000290;28;20161;-60
2022/06/08 07:24:40;;;;;;;4.72;2.72;;;;;;;;;;4998078;28;23623;-58
2022/06/08 07:27:07;;;;;;;4.82;2.78;;;;;;;;;;4999410;28;20138;-59
2022/06/08 07:29:33;;;;;;;5.55;3.20;;;;;;;;;;4998600;28;20042;-59
2022/06/08 07:32:00;;;;;;;4.78;2.65;;;;;;;;;;5000394;28;20116;-60
2022/06/08 07:34:27;;;;;;;5.78;2.90;;;;;;;;;;5028080;28;20107;-59
2022/06/08 07:36:54;;;;;;;6.60;3.38;;;;;;;;;;4996364;28;20037;-58
2022/06/08 07:39:21;;;;;;;5.70;3.00;;;;;;;;;;4998595;28;20086;-58
2022/06/08 07:41:49;;;;;;;4.47;2.80;;;;;;;;;;4998006;28;20042;-59
2022/06/08 07:44:17;;;;;;;6.03;2.83;;;;;;;;;;4997110;28;20056;-59
2022/06/08 07:46:44;;;;;;;4.45;2.42;;;;;;;;;;4998526;28;20056;-59
2022/06/08 07:51:58;;;;;;;7.00;2.90;;;;;;;;;;4998055;28;20060;-58
2022/06/08 07:54:25;;;;;;;7.20;2.95;;;;;;;;;;4996115;28;20042;-58
2022/06/08 07:56:53;;;;;;;7.53;2.65;;;;;;;;;;4997704;28;20034;-59
2022/06/08 07:59:21;;;;;;;5.00;2.50;;;;;;;;;;4998474;28;20177;-58
2022/06/08 08:01:48;;;;;;;7.90;2.80;;;;;;;;;;4997272;28;20065;-59
2022/06/08 08:04:15;;;;;;;4.70;2.47;;;;;;;;;;4995946;28;21061;-59
2022/06/08 08:06:41;;;;;;;5.32;2.70;;;;;;;;;;4997851;28;20060;-58
2022/06/08 08:09:13;;;;;;;4.95;2.75;;;;;;;;;;4999244;28;20136;-58
2022/06/08 08:11:40;;;;;;;6.47;2.80;;;;;;;;;;4997246;28;20078;-57
2022/06/08 08:14:07;;;;;;;5.55;3.10;;;;;;;;;;4996382;28;20426;-58
2022/06/08 08:16:34;;;;;;;7.20;2.58;;;;;;;;;;4998042;28;20046;-58
2022/06/08 08:19:00;;;;;;;4.70;2.78;;;;;;;;;;4998388;28;20556;-58
2022/06/08 08:21:27;;;;;;;5.90;2.65;;;;;;;;;;4997518;28;20066;-59
2022/06/08 08:23:53;;;;;;;5.00;2.90;;;;;;;;;;4998648;28;20046;-60
2022/06/08 08:26:20;;;;;;;5.32;2.63;;;;;;;;;;4998423;28;20116;-59
2022/06/08 08:28:47;;;;;;;4.93;2.53;;;;;;;;;;4997879;28;20050;-58
2022/06/08 08:31:13;;;;;;;8.63;2.80;;;;;;;;;;5013504;28;20056;-58
2022/06/08 08:33:40;;;;;;;5.53;3.00;;;;;;;;;;4997684;28;20351;-59
2022/06/08 08:36:07;;;;;;;7.97;3.00;;;;;;;;;;4998733;28;20172;-58
2022/06/08 08:38:34;;;;;;;4.05;2.50;;;;;;;;;;4998114;28;20660;-59
2022/06/08 08:41:02;;;;;;;5.90;2.80;;;;;;;;;;4997351;28;20034;-59
2022/06/08 08:43:35;;;;;;;4.68;2.45;;;;;;;;;;4996157;28;20042;-60
2022/06/08 08:46:19;;;;;;;5.20;2.38;;;;;;;;;;4999143;28;20534;-59
2022/06/08 08:48:51;;;;;;;5.32;2.42;;;;;;;;;;4996967;28;20794;-58
2022/06/08 08:51:23;;;;;;;4.80;2.40;;;;;;;;;;4997585;28;20141;-58
2022/06/08 08:54:04;;;;;;;4.13;2.42;;;;;;;;;;4995049;28;20042;-59
2022/06/08 08:56:34;;;;;;;5.65;2.33;;;;;;;;;;4997137;28;20038;-59
2022/06/08 08:59:01;;;;;;;5.72;2.20;;;;;;;;;;4997917;28;20126;-58
2022/06/08 09:01:29;;;;;;;5.10;2.35;;;;;;;;;;4996916;28;20615;-60
2022/06/08 09:04:14;;;;;;;6.75;2.28;;;;;;;;;;4996698;28;20419;-59
2022/06/08 09:06:41;;;;;;;4.80;2.40;;;;;;;;;;4996233;28;20139;-59
2022/06/08 09:09:14;;;;;;;4.93;2.22;;;;;;;;;;4996823;28;20164;-59
2022/06/08 09:11:42;;;;;;;4.63;2.22;;;;;;;;;;4997453;28;20049;-60
2022/06/08 09:14:08;;;;;;;5.43;2.40;;;;;;;;;;4997111;28;20033;-59
2022/06/08 09:16:39;;;;;;;6.38;2.00;;;;;;;;;;4996271;28;20894;-58
2022/06/08 09:19:23;;;;;;;4.50;1.95;;;;;;;;;;4994392;28;20038;-58
2022/06/08 09:21:50;;;;;;;5.65;1.95;;;;;;;;;;4996517;28;20068;-58
2022/06/08 09:24:17;;;;;;;3.70;1.73;;;;;;;;;;4995398;28;20045;-56
2022/06/08 09:26:43;;;;;;;4.40;1.80;;;;;;;;;;4997090;28;20137;-59
2022/06/08 09:29:22;;;;;;;6.13;1.90;;;;;;;;;;4996285;28;20050;-57
2022/06/08 09:31:50;;;;;;;5.15;2.03;;;;;;;;;;4996507;28;20061;-58
2022/06/08 09:34:25;;;;;;;4.72;2.00;;;;;;;;;;4994800;28;20465;-58
2022/06/08 09:37:04;;;;;;;7.63;2.13;;;;;;;;;;4996893;28;21548;-58
2022/06/08 09:39:30;;;;;;;4.30;1.88;;;;;;;;;;4995975;28;20061;-58
2022/06/08 09:42:00;;;;;;;3.63;1.80;;;;;;;;;;4996312;28;20068;-58
2022/06/08 09:44:26;;;;;;;6.85;2.03;;;;;;;;;;4995971;28;20049;-58
2022/06/08 09:52:38;;;;;;;7.85;2.20;;;;;;;;;;4997371;28;20137;-59
2022/06/08 09:55:08;;;;;;;4.82;1.90;;;;;;;;;;4998210;28;20053;-58
2022/06/08 09:57:43;;;;;;;4.57;2.00;;;;;;;;;;4997665;28;20113;-59
2022/06/08 10:00:22;;;;;;;4.13;2.10;;;;;;;;;;4998724;28;20045;-57
2022/06/08 10:02:48;;;;;;;5.70;2.22;;;;;;;;;;4997420;28;20620;-60
2022/06/08 10:05:18;;;;;;;7.32;2.35;;;;;;;;;;5011619;28;20042;-56
2022/06/08 10:07:53;;;;;;;5.13;2.35;;;;;;;;;;4996709;28;20542;-59
2022/06/08 10:10:22;;;;;;;4.25;2.20;;;;;;;;;;4997333;28;20120;-60
2022/06/08 10:12:57;;;;;;;5.05;1.75;;;;;;;;;;4996914;28;20421;-58
2022/06/08 10:15:26;;;;;;;5.32;2.10;;;;;;;;;;4996682;28;22041;-58
2022/06/08 10:18:00;;;;;;;6.35;2.20;;;;;;;;;;4999977;28;20052;-58
2022/06/08 10:20:34;;;;;;;4.13;1.85;;;;;;;;;;4999441;28;20034;-57
2022/06/08 10:23:06;;;;;;;3.75;1.70;;;;;;;;;;4998843;28;20050;-57
2022/06/08 10:25:39;;;;;;;3.55;1.75;;;;;;;;;;4998186;28;20475;-60
2022/06/08 10:28:08;;;;;;;4.30;1.90;;;;;;;;;;5000771;28;20114;-58
2022/06/08 10:30:46;;;;;;;4.82;2.10;;;;;;;;;;4997403;28;20909;-58
2022/06/08 10:33:18;;;;;;;4.28;1.90;;;;;;;;;;4996944;28;20050;-59
2022/06/08 10:35:48;;;;;;;4.55;1.98;;;;;;;;;;4997854;28;20038;-59
2022/06/08 10:38:21;;;;;;;4.25;2.03;;;;;;;;;;5001079;28;20034;-59
2022/06/08 10:40:51;;;;;;;5.38;2.10;;;;;;;;;;5000733;28;20102;-59
2022/06/08 10:43:28;;;;;;;4.13;2.20;;;;;;;;;;4999400;28;20064;-58
2022/06/08 10:45:57;;;;;;;6.15;2.00;;;;;;;;;;4999143;28;20046;-58
2022/06/08 10:48:27;;;;;;;6.50;2.00;;;;;;;;;;4998470;28;20065;-59
2022/06/08 10:51:12;;;;;;;5.38;2.22;;;;;;;;;;5000764;28;20653;-55
2022/06/08 10:56:26;;;;;;;3.88;2.00;;;;;;;;;;4999670;28;20135;-59
2022/06/08 10:59:12;;;;;;;4.38;2.13;;;;;;;;;;5000501;28;20112;-59
2022/06/08 11:01:39;;;;;;;4.18;1.90;;;;;;;;;;5000257;28;20141;-58
2022/06/08 11:04:07;;;;;;;4.07;2.20;;;;;;;;;;4999861;28;20046;-58
2022/06/08 11:06:53;;;;;;;5.22;2.65;;;;;;;;;;4999379;28;20030;-59
2022/06/08 11:09:21;;;;;;;6.05;2.40;;;;;;;;;;4999593;28;20833;-59
2022/06/08 11:11:49;;;;;;;7.32;2.47;;;;;;;;;;5001095;28;20030;-59
2022/06/08 11:14:32;;;;;;;5.15;2.60;;;;;;;;;;5000027;28;20054;-59
2022/06/08 11:17:06;;;;;;;10.93;2.88;;;;;;;;;;5000022;28;20046;-60
2022/06/08 11:19:35;;;;;;;6.35;2.70;;;;;;;;;;4999175;28;20074;-57
2022/06/08 11:22:05;;;;;;;4.80;2.53;;;;;;;;;;5001490;28;20037;-59
2022/06/08 11:24:32;;;;;;;6.15;2.55;;;;;;;;;;4999984;28;20034;-58
2022/06/08 11:27:02;;;;;;;5.15;2.58;;;;;;;;;;5001536;28;20053;-60
2022/06/08 11:29:32;;;;;;;4.82;2.65;;;;;;;;;;4999913;28;20130;-58
2022/06/08 11:31:58;;;;;;;5.78;2.65;;;;;;;;;;5001371;28;20049;-59
2022/06/08 11:34:48;;;;;;;4.47;2.50;;;;;;;;;;4999268;28;20053;-57
2022/06/08 11:37:26;;;;;;;4.70;2.35;;;;;;;;;;5002092;28;20038;-59
2022/06/08 11:40:08;;;;;;;5.57;2.40;;;;;;;;;;5001270;28;20037;-57
2022/06/08 11:42:38;;;;;;;5.32;2.78;;;;;;;;;;4999172;28;20520;-55
2022/06/08 11:45:25;;;;;;;5.20;2.60;;;;;;;;;;5030076;28;20558;-57
2022/06/08 11:48:01;;;;;;;7.22;2.70;;;;;;;;;;4998017;28;20592;-57
2022/06/08 11:50:32;;;;;;;6.13;2.80;;;;;;;;;;4998681;28;20268;-59
2022/06/08 11:53:03;;;;;;;5.45;3.00;;;;;;;;;;4999560;28;20034;-61
2022/06/08 11:55:45;;;;;;;7.78;2.85;;;;;;;;;;4994890;28;20511;-58
2022/06/08 11:58:17;;;;;;;6.55;3.10;;;;;;;;;;4999050;28;20046;-62
2022/06/08 12:00:44;;;;;;;6.70;3.00;;;;;;;;;;4996183;28;20756;-61
2022/06/08 12:03:17;;;;;;;4.95;2.60;;;;;;;;;;4997037;28;20045;-60
2022/06/08 12:05:51;;;;;;;8.20;3.05;;;;;;;;;;4996946;28;20042;-61
2022/06/08 12:08:21;;;;;;;9.10;2.67;;;;;;;;;;4998237;28;21052;-62
2022/06/08 12:10:47;;;;;;;4.97;2.50;;;;;;;;;;4998495;28;20116;-61
2022/06/08 12:13:22;;;;;;;6.43;2.90;;;;;;;;;;5001829;28;20558;-63
2022/06/08 12:15:56;;;;;;;12.15;2.75;;;;;;;;;;4998809;28;20072;-62
2022/06/08 12:18:37;;;;;;;8.38;2.40;;;;;;;;;;4998583;28;20143;-62
2022/06/08 12:21:19;;;;;;;9.07;2.90;;;;;;;;;;4999809;28;20049;-57
2022/06/08 12:23:57;;;;;;;7.10;2.63;;;;;;;;;;4999390;28;20072;-61
2022/06/08 12:26:24;;;;;;;4.70;2.10;;;;;;;;;;5000092;28;20034;-57
2022/06/08 12:29:03;;;;;;;7.45;2.30;;;;;;;;;;5000573;28;20073;-58
2022/06/08 12:31:31;;;;;;;4.82;2.67;;;;;;;;;;5000360;28;20742;-58
2022/06/08 12:34:17;;;;;;;5.68;2.60;;;;;;;;;;4999504;28;20050;-57
2022/06/08 12:36:44;;;;;;;5.50;2.38;;;;;;;;;;4997481;28;20113;-58
2022/06/08 12:39:16;;;;;;;6.32;2.50;;;;;;;;;;4996623;28;20057;-57
2022/06/08 12:41:42;;;;;;;4.88;2.15;;;;;;;;;;4997003;28;20502;-57
2022/06/08 12:44:16;;;;;;;5.50;2.20;;;;;;;;;;4996960;28;20136;-56
2022/06/08 12:46:42;;;;;;;;;;;;;;;;;;4997661;28;20045;-58
2022/06/08 12:49:17;;;;;;;7.57;2.00;;;;;;;;;;4996956;28;19944;-58
2022/06/08 12:51:53;;;;;;;12.25;2.53;;;;;;;;;;4997411;28;20049;-57
2022/06/08 12:54:27;;;;;;;5.47;2.22;;;;;;;;;;4995569;28;20056;-57
2022/06/08 12:56:56;;;;;;;10.13;2.78;;;;;;;;;;4997670;28;20092;-58
2022/06/08 12:59:23;;;;;;;9.23;2.35;;;;;;;;;;4995995;28;20506;-57
2022/06/08 13:01:49;;;;;;;9.23;2.45;;;;;;;;;;4999291;28;20050;-64
2022/06/08 13:04:18;;;;;;;6.25;2.00;;;;;;;;;;4998241;28;20065;-65
2022/06/08 13:06:45;;;;;;;5.68;1.88;;;;;;;;;;4998907;28;20046;-66
2022/06/08 13:09:17;;;;;;;5.72;2.28;;;;;;;;;;4999322;28;20180;-58
2022/06/08 13:11:44;;;;;;;6.38;2.10;;;;;;;;;;4998680;28;20600;-57
2022/06/08 13:14:14;;;;;;;10.75;2.42;;;;;;;;;;4997576;28;20108;-58
2022/06/08 13:16:40;;;;;;;5.32;2.22;;;;;;;;;;4995994;28;20042;-58
2022/06/08 13:19:07;;;;;;;7.93;2.10;;;;;;;;;;4999113;28;20113;-58
2022/06/08 13:21:35;;;;;;;4.68;1.70;;;;;;;;;;4997934;28;20034;-60
2022/06/08 13:24:02;;;;;;;4.88;1.90;;;;;;;;;;4998070;28;20091;-60
2022/06/08 13:26:31;;;;;;;3.38;1.65;;;;;;;;;;4998329;28;20044;-59
2022/06/08 13:28:57;;;;;;;3.78;1.70;;;;;;;;;;4995294;28;20068;-59
2022/06/08 13:31:24;;;;;;;4.90;1.77;;;;;;;;;;4997540;28;20706;-57
2022/06/08 13:34:03;;;;;;;3.50;1.60;;;;;;;;;;5011914;28;20489;-59
2022/06/08 13:36:48;;;;;;;3.35;1.50;;;;;;;;;;4997844;28;20430;-58
2022/06/08 13:39:17;;;;;;;4.65;1.70;;;;;;;;;;4997482;28;20049;-60
2022/06/08 13:41:44;;;;;;;7.28;2.03;;;;;;;;;;4996837;28;20038;-60
2022/06/08 13:44:24;;;;;;;8.43;1.90;;;;;;;;;;4996648;28;20038;-62
2022/06/08 13:46:53;;;;;;;4.45;1.90;;;;;;;;;;4999458;28;20045;-57
2022/06/08 13:49:20;;;;;;;4.43;1.70;;;;;;;;;;4998029;28;20054;-57
2022/06/08 13:51:46;;;;;;;13.35;1.48;;;;;;;;;;4996872;28;20493;-58
2022/06/08 13:54:21;;;;;;;7.43;2.10;;;;;;;;;;4998104;28;20053;-58
2022/06/08 13:56:48;;;;;;;5.22;1.98;;;;;;;;;;4997769;28;20049;-59
2022/06/08 13:59:16;;;;;;;12.93;2.10;;;;;;;;;;4999377;28;20038;-59
2022/06/08 14:01:43;;;;;;;4.72;1.90;;;;;;;;;;4998311;28;20073;-59
2022/06/08 14:04:15;;;;;;;3.97;1.45;;;;;;;;;;4998277;28;20037;-58
2022/06/08 14:14:57;;;;;;;4.28;1.55;;;;;;;;;;4999893;28;20061;-59
2022/06/08 14:17:24;;;;;;;5.38;1.60;;;;;;;;;;4999654;28;20077;-58
2022/06/08 14:19:52;;;;;;;5.00;1.75;;;;;;;;;;5000656;28;20056;-59
2022/06/08 14:22:21;;;;;;;5.78;1.55;;;;;;;;;;5001100;28;20052;-58
2022/06/08 14:24:53;;;;;;;5.00;1.65;;;;;;;;;;5000334;28;20506;-59
2022/06/08 14:27:20;;;;;;;3.97;1.60;;;;;;;;;;5000521;28;20096;-59
2022/06/08 14:29:48;;;;;;;3.83;1.60;;;;;;;;;;5000572;28;20034;-58
2022/06/08 14:32:17;;;;;;;5.75;1.70;;;;;;;;;;5001931;28;20042;-59
2022/06/08 14:34:45;;;;;;;5.57;1.50;;;;;;;;;;4998384;28;20060;-58
2022/06/08 14:37:13;;;;;;;4.10;1.52;;;;;;;;;;5001978;28;20038;-59
2022/06/08 14:39:40;;;;;;;4.97;1.60;;;;;;;;;;5000113;28;20520;-59
2022/06/08 14:42:06;;;;;;;9.02;1.70;;;;;;;;;;5000391;28;20049;-58
2022/06/08 14:44:33;;;;;;;5.45;1.50;;;;;;;;;;4998255;28;20152;-58
2022/06/08 14:47:01;;;;;;;6.32;1.83;;;;;;;;;;4999414;28;20034;-59
2022/06/08 14:49:30;;;;;;;4.72;1.50;;;;;;;;;;4997397;28;20180;-59
2022/06/08 14:51:58;;;;;;;4.18;1.52;;;;;;;;;;4998581;28;20588;-60
2022/06/08 14:54:30;;;;;;;8.02;1.60;;;;;;;;;;4997452;28;20038;-60
2022/06/08 14:57:06;;;;;;;4.50;1.58;;;;;;;;;;4999368;28;20057;-59
2022/06/08 14:59:34;;;;;;;3.97;1.60;;;;;;;;;;4998112;28;20074;-58
2022/06/08 15:02:08;;;;;;;7.78;1.40;;;;;;;;;;4998192;28;20037;-59
2022/06/08 15:04:35;;;;;;;4.10;1.30;;;;;;;;;;4996906;28;20077;-59
2022/06/08 15:07:03;;;;;;;6.43;1.42;;;;;;;;;;4999079;28;20069;-59
2022/06/08 15:09:29;;;;;;;3.50;1.40;;;;;;;;;;4998107;28;20502;-59
2022/06/08 15:12:02;;;;;;;5.00;1.50;;;;;;;;;;5000131;28;20052;-60
2022/06/08 15:14:40;;;;;;;5.40;1.42;;;;;;;;;;5012753;28;20042;-59
2022/06/08 15:17:18;;;;;;;4.50;1.40;;;;;;;;;;4998408;28;20408;-59
2022/06/08 15:19:46;;;;;;;6.15;1.38;;;;;;;;;;4996489;28;20745;-59
2022/06/08 15:22:15;;;;;;;4.53;1.42;;;;;;;;;;4999576;28;20041;-59